5NE1 weather

Trumbull Ranch Airport
Ringgold, Nebraska, United States

Public forecast

Using degrees Fahrenheit for public forecast. Weather courtesy of forecast.io.

Closest aviation weather report (METAR) to Trumbull Ranch Airport

Closest report is North Platte Regional Airport Lee Bird Field, 26.3 nm (48.8 km) SSE. Retrieved 2019/10/16 15:53 UTC (7 minutes ago):

KLBF 161553Z AUTO 20012KT 10SM CLR 09/M01 A3015 RMK AO2 SLP220 T00891006

Closest aviation forecast (TAF) to Trumbull Ranch Airport

Closest forecast is North Platte Regional Airport Lee Bird Field, 26.3 nm (48.8 km) SSE. Retrieved 2019/10/16 12:22 UTC (4 hours ago):

TAF KLBF 161120Z 1612/1712 VRB03KT P6SM SCT250 FM161700 19009KT P6SM SCT250 FM170100 14006KT P6SM SCT250